sensor_id;sensor_type;location;lat;lon;timestamp;P1;durP1;ratioP1;P2;durP2;ratioP2
26820;SDS011;37186;51.394;5.454;2022-07-29T00:01:38;178.85;;;170.80;;
26820;SDS011;37186;51.394;5.454;2022-07-29T00:04:38;185.63;;;177.30;;
26820;SDS011;37186;51.394;5.454;2022-07-29T00:07:39;178.73;;;170.73;;
26820;SDS011;37186;51.394;5.454;2022-07-29T00:10:41;176.27;;;168.45;;
26820;SDS011;37186;51.394;5.454;2022-07-29T00:13:41;187.27;;;178.93;;
26820;SDS011;37186;51.394;5.454;2022-07-29T00:16:42;180.00;;;172.00;;
26820;SDS011;37186;51.394;5.454;2022-07-29T00:19:43;169.07;;;161.63;;
26820;SDS011;37186;51.394;5.454;2022-07-29T00:22:43;175.90;;;168.07;;
26820;SDS011;37186;51.394;5.454;2022-07-29T00:25:44;170.43;;;162.90;;
26820;SDS011;37186;51.394;5.454;2022-07-29T00:28:44;171.45;;;163.80;;
26820;SDS011;37186;51.394;5.454;2022-07-29T00:31:45;161.43;;;154.15;;
26820;SDS011;37186;51.394;5.454;2022-07-29T00:34:45;159.43;;;152.05;;
26820;SDS011;37186;51.394;5.454;2022-07-29T00:38:04;181.18;;;172.75;;
26820;SDS011;37186;51.394;5.454;2022-07-29T00:41:05;186.90;;;178.20;;
26820;SDS011;37186;51.394;5.454;2022-07-29T00:44:05;180.15;;;171.65;;
26820;SDS011;37186;51.394;5.454;2022-07-29T00:47:06;186.90;;;178.07;;
26820;SDS011;37186;51.394;5.454;2022-07-29T00:50:08;194.43;;;185.27;;
26820;SDS011;37186;51.394;5.454;2022-07-29T00:53:10;209.25;;;199.45;;
26820;SDS011;37186;51.394;5.454;2022-07-29T00:56:12;206.88;;;197.18;;
26820;SDS011;37186;51.394;5.454;2022-07-29T00:59:12;211.77;;;201.63;;
26820;SDS011;37186;51.394;5.454;2022-07-29T01:02:13;212.45;;;202.40;;
26820;SDS011;37186;51.394;5.454;2022-07-29T01:05:14;199.82;;;190.35;;
26820;SDS011;37186;51.394;5.454;2022-07-29T01:08:19;200.48;;;190.95;;
26820;SDS011;37186;51.394;5.454;2022-07-29T01:11:20;212.23;;;201.93;;
26820;SDS011;37186;51.394;5.454;2022-07-29T01:14:21;212.20;;;201.55;;
26820;SDS011;37186;51.394;5.454;2022-07-29T01:24:07;204.98;;;194.30;;
26820;SDS011;37186;51.394;5.454;2022-07-29T01:27:20;200.88;;;190.57;;
26820;SDS011;37186;51.394;5.454;2022-07-29T01:30:41;192.00;;;182.15;;
26820;SDS011;37186;51.394;5.454;2022-07-29T01:33:45;188.05;;;178.75;;
26820;SDS011;37186;51.394;5.454;2022-07-29T01:37:06;170.27;;;161.93;;
26820;SDS011;37186;51.394;5.454;2022-07-29T01:40:22;181.93;;;173.05;;
26820;SDS011;37186;51.394;5.454;2022-07-29T01:47:01;158.98;;;151.15;;
26820;SDS011;37186;51.394;5.454;2022-07-29T01:50:08;157.93;;;150.20;;
26820;SDS011;37186;51.394;5.454;2022-07-29T01:53:12;164.13;;;155.90;;
26820;SDS011;37186;51.394;5.454;2022-07-29T01:56:18;155.00;;;147.38;;
26820;SDS011;37186;51.394;5.454;2022-07-29T01:59:20;162.88;;;154.82;;
26820;SDS011;37186;51.394;5.454;2022-07-29T02:02:21;161.23;;;153.27;;
26820;SDS011;37186;51.394;5.454;2022-07-29T02:05:23;176.10;;;167.45;;
26820;SDS011;37186;51.394;5.454;2022-07-29T02:08:25;172.75;;;164.43;;
26820;SDS011;37186;51.394;5.454;2022-07-29T02:11:26;184.98;;;176.10;;
26820;SDS011;37186;51.394;5.454;2022-07-29T02:14:28;185.07;;;176.13;;
26820;SDS011;37186;51.394;5.454;2022-07-29T02:17:35;177.88;;;169.35;;
26820;SDS011;37186;51.394;5.454;2022-07-29T02:20:47;178.63;;;170.18;;
26820;SDS011;37186;51.394;5.454;2022-07-29T02:23:51;178.88;;;170.20;;
26820;SDS011;37186;51.394;5.454;2022-07-29T02:26:53;186.50;;;177.48;;
26820;SDS011;37186;51.394;5.454;2022-07-29T02:29:56;183.57;;;174.75;;
26820;SDS011;37186;51.394;5.454;2022-07-29T02:33:00;176.93;;;168.45;;
26820;SDS011;37186;51.394;5.454;2022-07-29T02:36:01;181.13;;;172.45;;
26820;SDS011;37186;51.394;5.454;2022-07-29T02:39:03;188.07;;;179.15;;
26820;SDS011;37186;51.394;5.454;2022-07-29T02:42:05;177.30;;;168.98;;
26820;SDS011;37186;51.394;5.454;2022-07-29T02:45:09;185.48;;;176.70;;
26820;SDS011;37186;51.394;5.454;2022-07-29T02:48:12;178.13;;;169.77;;
26820;SDS011;37186;51.394;5.454;2022-07-29T02:51:17;179.80;;;171.30;;
26820;SDS011;37186;51.394;5.454;2022-07-29T03:01:03;181.23;;;172.52;;
26820;SDS011;37186;51.394;5.454;2022-07-29T03:04:08;176.82;;;168.27;;
26820;SDS011;37186;51.394;5.454;2022-07-29T03:07:13;187.60;;;178.60;;
26820;SDS011;37186;51.394;5.454;2022-07-29T03:10:15;187.00;;;178.07;;
26820;SDS011;37186;51.394;5.454;2022-07-29T03:13:16;194.35;;;184.93;;
26820;SDS011;37186;51.394;5.454;2022-07-29T03:16:18;191.35;;;182.27;;
26820;SDS011;37186;51.394;5.454;2022-07-29T03:19:19;197.50;;;188.07;;
26820;SDS011;37186;51.394;5.454;2022-07-29T03:22:20;210.60;;;200.70;;
26820;SDS011;37186;51.394;5.454;2022-07-29T03:25:21;220.48;;;210.32;;
26820;SDS011;37186;51.394;5.454;2022-07-29T03:28:22;238.80;;;228.00;;
26820;SDS011;37186;51.394;5.454;2022-07-29T03:31:22;240.43;;;229.48;;
26820;SDS011;37186;51.394;5.454;2022-07-29T03:34:23;236.80;;;226.25;;
26820;SDS011;37186;51.394;5.454;2022-07-29T03:37:23;230.25;;;220.02;;
26820;SDS011;37186;51.394;5.454;2022-07-29T03:40:31;231.00;;;220.68;;
26820;SDS011;37186;51.394;5.454;2022-07-29T03:43:38;238.65;;;228.02;;
26820;SDS011;37186;51.394;5.454;2022-07-29T03:46:40;240.57;;;229.88;;
26820;SDS011;37186;51.394;5.454;2022-07-29T03:49:44;238.57;;;228.05;;
26820;SDS011;37186;51.394;5.454;2022-07-29T03:52:48;236.98;;;226.35;;
26820;SDS011;37186;51.394;5.454;2022-07-29T03:55:50;218.18;;;208.50;;
26820;SDS011;37186;51.394;5.454;2022-07-29T03:58:54;223.80;;;213.70;;
26820;SDS011;37186;51.394;5.454;2022-07-29T04:01:55;227.20;;;216.88;;
26820;SDS011;37186;51.394;5.454;2022-07-29T04:04:57;222.57;;;212.68;;
26820;SDS011;37186;51.394;5.454;2022-07-29T04:07:57;207.30;;;198.20;;
26820;SDS011;37186;51.394;5.454;2022-07-29T04:10:58;209.63;;;200.45;;
26820;SDS011;37186;51.394;5.454;2022-07-29T04:14:00;199.45;;;190.80;;
26820;SDS011;37186;51.394;5.454;2022-07-29T04:17:01;209.98;;;200.80;;
26820;SDS011;37186;51.394;5.454;2022-07-29T04:20:02;200.50;;;191.85;;
26820;SDS011;37186;51.394;5.454;2022-07-29T04:23:03;202.05;;;193.30;;
26820;SDS011;37186;51.394;5.454;2022-07-29T04:26:04;200.60;;;191.95;;
26820;SDS011;37186;51.394;5.454;2022-07-29T04:29:04;195.27;;;186.75;;
26820;SDS011;37186;51.394;5.454;2022-07-29T04:32:05;203.07;;;194.20;;
26820;SDS011;37186;51.394;5.454;2022-07-29T04:35:06;195.90;;;187.40;;
26820;SDS011;37186;51.394;5.454;2022-07-29T04:38:07;200.95;;;192.13;;
26820;SDS011;37186;51.394;5.454;2022-07-29T04:41:07;185.30;;;177.10;;
26820;SDS011;37186;51.394;5.454;2022-07-29T04:44:08;189.73;;;181.38;;
26820;SDS011;37186;51.394;5.454;2022-07-29T04:47:09;195.63;;;187.00;;
26820;SDS011;37186;51.394;5.454;2022-07-29T04:50:10;196.23;;;187.70;;
26820;SDS011;37186;51.394;5.454;2022-07-29T04:53:10;188.45;;;180.20;;
26820;SDS011;37186;51.394;5.454;2022-07-29T04:56:11;196.80;;;188.23;;
26820;SDS011;37186;51.394;5.454;2022-07-29T04:59:11;186.90;;;178.65;;
26820;SDS011;37186;51.394;5.454;2022-07-29T05:02:12;198.52;;;189.75;;
26820;SDS011;37186;51.394;5.454;2022-07-29T05:05:12;185.68;;;177.43;;
26820;SDS011;37186;51.394;5.454;2022-07-29T05:08:13;182.38;;;174.30;;
26820;SDS011;37186;51.394;5.454;2022-07-29T05:11:14;186.63;;;178.30;;
26820;SDS011;37186;51.394;5.454;2022-07-29T05:14:14;175.55;;;167.75;;
26820;SDS011;37186;51.394;5.454;2022-07-29T05:17:15;186.90;;;178.57;;
26820;SDS011;37186;51.394;5.454;2022-07-29T05:20:15;182.73;;;174.63;;
26820;SDS011;37186;51.394;5.454;2022-07-29T05:23:15;180.73;;;172.70;;
26820;SDS011;37186;51.394;5.454;2022-07-29T05:26:16;179.00;;;171.10;;
26820;SDS011;37186;51.394;5.454;2022-07-29T05:29:17;186.07;;;177.80;;
26820;SDS011;37186;51.394;5.454;2022-07-29T05:32:17;189.57;;;181.15;;
26820;SDS011;37186;51.394;5.454;2022-07-29T05:35:18;189.55;;;181.20;;
26820;SDS011;37186;51.394;5.454;2022-07-29T05:38:18;192.77;;;184.23;;
26820;SDS011;37186;51.394;5.454;2022-07-29T05:41:19;183.32;;;175.10;;
26820;SDS011;37186;51.394;5.454;2022-07-29T05:44:20;172.90;;;165.23;;
26820;SDS011;37186;51.394;5.454;2022-07-29T05:47:20;169.98;;;162.45;;
26820;SDS011;37186;51.394;5.454;2022-07-29T05:50:22;177.23;;;169.32;;
26820;SDS011;37186;51.394;5.454;2022-07-29T05:53:22;173.93;;;166.15;;
26820;SDS011;37186;51.394;5.454;2022-07-29T05:56:23;193.43;;;184.73;;
26820;SDS011;37186;51.394;5.454;2022-07-29T05:59:24;178.85;;;170.88;;
26820;SDS011;37186;51.394;5.454;2022-07-29T06:02:24;183.32;;;175.07;;
26820;SDS011;37186;51.394;5.454;2022-07-29T06:05:25;179.88;;;171.82;;
26820;SDS011;37186;51.394;5.454;2022-07-29T06:08:25;185.35;;;176.93;;
26820;SDS011;37186;51.394;5.454;2022-07-29T06:11:26;173.95;;;166.05;;
26820;SDS011;37186;51.394;5.454;2022-07-29T06:14:27;181.27;;;173.07;;
26820;SDS011;37186;51.394;5.454;2022-07-29T06:17:28;179.93;;;171.85;;
26820;SDS011;37186;51.394;5.454;2022-07-29T06:20:29;182.38;;;174.32;;
26820;SDS011;37186;51.394;5.454;2022-07-29T06:23:30;185.90;;;177.73;;
26820;SDS011;37186;51.394;5.454;2022-07-29T06:26:30;180.88;;;172.88;;
26820;SDS011;37186;51.394;5.454;2022-07-29T06:29:31;197.10;;;188.52;;
26820;SDS011;37186;51.394;5.454;2022-07-29T06:32:32;189.13;;;180.88;;
26820;SDS011;37186;51.394;5.454;2022-07-29T06:35:33;184.57;;;176.50;;
26820;SDS011;37186;51.394;5.454;2022-07-29T06:38:35;184.95;;;176.93;;
26820;SDS011;37186;51.394;5.454;2022-07-29T06:41:35;185.70;;;177.60;;
26820;SDS011;37186;51.394;5.454;2022-07-29T06:44:36;192.48;;;184.13;;
26820;SDS011;37186;51.394;5.454;2022-07-29T06:47:36;190.75;;;182.52;;
26820;SDS011;37186;51.394;5.454;2022-07-29T06:50:37;189.52;;;181.25;;
26820;SDS011;37186;51.394;5.454;2022-07-29T06:53:38;196.45;;;187.95;;
26820;SDS011;37186;51.394;5.454;2022-07-29T06:56:39;192.55;;;184.20;;
26820;SDS011;37186;51.394;5.454;2022-07-29T06:59:41;202.68;;;193.98;;
26820;SDS011;37186;51.394;5.454;2022-07-29T07:02:42;195.20;;;186.77;;
26820;SDS011;37186;51.394;5.454;2022-07-29T07:05:42;194.65;;;186.27;;
26820;SDS011;37186;51.394;5.454;2022-07-29T07:08:44;189.80;;;181.73;;
26820;SDS011;37186;51.394;5.454;2022-07-29T07:11:44;185.38;;;177.43;;
26820;SDS011;37186;51.394;5.454;2022-07-29T07:14:44;185.00;;;177.13;;
26820;SDS011;37186;51.394;5.454;2022-07-29T07:17:45;180.95;;;173.25;;
26820;SDS011;37186;51.394;5.454;2022-07-29T07:20:45;178.48;;;170.60;;
26820;SDS011;37186;51.394;5.454;2022-07-29T07:23:47;172.57;;;165.00;;
26820;SDS011;37186;51.394;5.454;2022-07-29T07:26:47;173.98;;;166.18;;
26820;SDS011;37186;51.394;5.454;2022-07-29T07:29:48;190.82;;;182.10;;
26820;SDS011;37186;51.394;5.454;2022-07-29T07:32:48;184.48;;;176.25;;
26820;SDS011;37186;51.394;5.454;2022-07-29T07:35:49;187.75;;;179.35;;
26820;SDS011;37186;51.394;5.454;2022-07-29T07:38:50;188.60;;;180.13;;
26820;SDS011;37186;51.394;5.454;2022-07-29T07:41:50;180.73;;;172.57;;
26820;SDS011;37186;51.394;5.454;2022-07-29T07:44:51;191.18;;;182.65;;
26820;SDS011;37186;51.394;5.454;2022-07-29T07:47:51;201.82;;;192.63;;
26820;SDS011;37186;51.394;5.454;2022-07-29T07:50:52;205.30;;;196.07;;
26820;SDS011;37186;51.394;5.454;2022-07-29T07:53:52;193.38;;;184.57;;
26820;SDS011;37186;51.394;5.454;2022-07-29T07:56:53;198.90;;;189.93;;
26820;SDS011;37186;51.394;5.454;2022-07-29T07:59:53;202.18;;;192.93;;
26820;SDS011;37186;51.394;5.454;2022-07-29T08:02:54;217.98;;;207.90;;
26820;SDS011;37186;51.394;5.454;2022-07-29T08:05:54;216.68;;;206.63;;
26820;SDS011;37186;51.394;5.454;2022-07-29T08:08:55;217.57;;;207.77;;
26820;SDS011;37186;51.394;5.454;2022-07-29T08:11:56;213.75;;;204.05;;
26820;SDS011;37186;51.394;5.454;2022-07-29T08:14:58;213.27;;;203.55;;
26820;SDS011;37186;51.394;5.454;2022-07-29T08:17:58;231.05;;;220.15;;
26820;SDS011;37186;51.394;5.454;2022-07-29T08:20:59;224.70;;;214.45;;
26820;SDS011;37186;51.394;5.454;2022-07-29T08:24:00;220.02;;;209.88;;
26820;SDS011;37186;51.394;5.454;2022-07-29T08:27:19;226.88;;;216.35;;
26820;SDS011;37186;51.394;5.454;2022-07-29T08:30:20;219.68;;;209.55;;
26820;SDS011;37186;51.394;5.454;2022-07-29T08:33:21;230.60;;;219.90;;
26820;SDS011;37186;51.394;5.454;2022-07-29T08:36:21;227.15;;;216.50;;
26820;SDS011;37186;51.394;5.454;2022-07-29T08:39:22;225.95;;;215.23;;
26820;SDS011;37186;51.394;5.454;2022-07-29T08:42:23;222.68;;;212.27;;
26820;SDS011;37186;51.394;5.454;2022-07-29T08:45:24;222.80;;;212.32;;
26820;SDS011;37186;51.394;5.454;2022-07-29T08:48:25;222.98;;;212.40;;
26820;SDS011;37186;51.394;5.454;2022-07-29T08:51:26;223.43;;;212.85;;
26820;SDS011;37186;51.394;5.454;2022-07-29T08:54:27;226.07;;;215.57;;
26820;SDS011;37186;51.394;5.454;2022-07-29T08:57:29;230.75;;;219.88;;
26820;SDS011;37186;51.394;5.454;2022-07-29T09:00:30;218.40;;;208.07;;
26820;SDS011;37186;51.394;5.454;2022-07-29T09:03:32;225.35;;;214.60;;
26820;SDS011;37186;51.394;5.454;2022-07-29T09:06:34;216.93;;;206.65;;
26820;SDS011;37186;51.394;5.454;2022-07-29T09:09:37;220.50;;;210.13;;
26820;SDS011;37186;51.394;5.454;2022-07-29T09:12:39;215.38;;;205.20;;
26820;SDS011;37186;51.394;5.454;2022-07-29T09:15:40;206.18;;;196.65;;
26820;SDS011;37186;51.394;5.454;2022-07-29T09:18:44;211.10;;;201.48;;
26820;SDS011;37186;51.394;5.454;2022-07-29T09:21:46;214.52;;;204.75;;
26820;SDS011;37186;51.394;5.454;2022-07-29T09:24:58;211.43;;;201.70;;
26820;SDS011;37186;51.394;5.454;2022-07-29T09:28:08;213.13;;;203.35;;
26820;SDS011;37186;51.394;5.454;2022-07-29T09:31:10;214.20;;;204.13;;
26820;SDS011;37186;51.394;5.454;2022-07-29T09:34:11;210.10;;;200.23;;
26820;SDS011;37186;51.394;5.454;2022-07-29T09:37:25;212.05;;;201.95;;
26820;SDS011;37186;51.394;5.454;2022-07-29T09:40:27;207.15;;;197.43;;
26820;SDS011;37186;51.394;5.454;2022-07-29T09:43:28;214.25;;;204.32;;
26820;SDS011;37186;51.394;5.454;2022-07-29T09:46:29;209.50;;;199.52;;
26820;SDS011;37186;51.394;5.454;2022-07-29T09:49:29;207.70;;;197.65;;
26820;SDS011;37186;51.394;5.454;2022-07-29T09:52:30;216.25;;;205.77;;
26820;SDS011;37186;51.394;5.454;2022-07-29T09:55:30;222.73;;;211.85;;
26820;SDS011;37186;51.394;5.454;2022-07-29T09:58:31;224.80;;;213.93;;
26820;SDS011;37186;51.394;5.454;2022-07-29T10:01:35;223.80;;;212.68;;
26820;SDS011;37186;51.394;5.454;2022-07-29T10:04:36;238.35;;;226.43;;
26820;SDS011;37186;51.394;5.454;2022-07-29T10:07:48;236.35;;;224.40;;
26820;SDS011;37186;51.394;5.454;2022-07-29T10:10:50;236.63;;;224.60;;
26820;SDS011;37186;51.394;5.454;2022-07-29T10:13:50;262.92;;;249.48;;
26820;SDS011;37186;51.394;5.454;2022-07-29T10:16:51;258.20;;;245.18;;
26820;SDS011;37186;51.394;5.454;2022-07-29T10:19:52;278.92;;;265.08;;
26820;SDS011;37186;51.394;5.454;2022-07-29T10:22:53;279.73;;;266.10;;
26820;SDS011;37186;51.394;5.454;2022-07-29T10:25:56;280.67;;;266.38;;
26820;SDS011;37186;51.394;5.454;2022-07-29T10:28:57;289.42;;;274.67;;
26820;SDS011;37186;51.394;5.454;2022-07-29T10:38:36;284.85;;;270.38;;
26820;SDS011;37186;51.394;5.454;2022-07-29T10:45:06;270.40;;;256.33;;
26820;SDS011;37186;51.394;5.454;2022-07-29T10:48:07;273.80;;;259.60;;
26820;SDS011;37186;51.394;5.454;2022-07-29T10:51:08;263.30;;;250.00;;
26820;SDS011;37186;51.394;5.454;2022-07-29T10:54:09;267.70;;;254.25;;
26820;SDS011;37186;51.394;5.454;2022-07-29T11:00:25;249.68;;;236.77;;
26820;SDS011;37186;51.394;5.454;2022-07-29T11:03:47;252.68;;;239.25;;
26820;SDS011;37186;51.394;5.454;2022-07-29T11:07:10;277.10;;;262.20;;
26820;SDS011;37186;51.394;5.454;2022-07-29T11:13:17;305.45;;;288.30;;
26820;SDS011;37186;51.394;5.454;2022-07-29T11:23:31;315.10;;;297.17;;
26820;SDS011;37186;51.394;5.454;2022-07-29T11:26:35;327.50;;;308.42;;
26820;SDS011;37186;51.394;5.454;2022-07-29T11:29:38;346.42;;;326.23;;
26820;SDS011;37186;51.394;5.454;2022-07-29T11:33:03;329.65;;;310.35;;
26820;SDS011;37186;51.394;5.454;2022-07-29T11:36:07;334.55;;;315.13;;
26820;SDS011;37186;51.394;5.454;2022-07-29T11:39:27;328.75;;;309.45;;
26820;SDS011;37186;51.394;5.454;2022-07-29T11:45:44;327.50;;;308.65;;
26820;SDS011;37186;51.394;5.454;2022-07-29T11:48:46;341.88;;;322.02;;
26820;SDS011;37186;51.394;5.454;2022-07-29T11:51:53;332.92;;;314.02;;
26820;SDS011;37186;51.394;5.454;2022-07-29T11:54:56;339.80;;;320.20;;
26820;SDS011;37186;51.394;5.454;2022-07-29T11:58:01;346.38;;;326.55;;
26820;SDS011;37186;51.394;5.454;2022-07-29T12:01:02;345.90;;;325.88;;
26820;SDS011;37186;51.394;5.454;2022-07-29T12:04:06;355.02;;;334.70;;
26820;SDS011;37186;51.394;5.454;2022-07-29T12:07:07;371.02;;;349.42;;
26820;SDS011;37186;51.394;5.454;2022-07-29T12:10:08;360.42;;;339.67;;
26820;SDS011;37186;51.394;5.454;2022-07-29T12:13:09;377.52;;;355.83;;
26820;SDS011;37186;51.394;5.454;2022-07-29T12:16:10;354.05;;;333.98;;
26820;SDS011;37186;51.394;5.454;2022-07-29T12:19:13;323.40;;;306.55;;
26820;SDS011;37186;51.394;5.454;2022-07-29T12:22:13;292.33;;;276.92;;
26820;SDS011;37186;51.394;5.454;2022-07-29T12:25:28;292.10;;;276.75;;
26820;SDS011;37186;51.394;5.454;2022-07-29T12:28:37;319.20;;;301.67;;
26820;SDS011;37186;51.394;5.454;2022-07-29T12:31:38;318.95;;;301.33;;
26820;SDS011;37186;51.394;5.454;2022-07-29T12:34:39;327.67;;;309.90;;
26820;SDS011;37186;51.394;5.454;2022-07-29T12:37:40;332.20;;;314.02;;
26820;SDS011;37186;51.394;5.454;2022-07-29T12:40:42;323.73;;;306.75;;
26820;SDS011;37186;51.394;5.454;2022-07-29T12:43:53;331.33;;;313.70;;
26820;SDS011;37186;51.394;5.454;2022-07-29T12:47:01;335.15;;;317.17;;
26820;SDS011;37186;51.394;5.454;2022-07-29T12:53:14;323.63;;;306.92;;
26820;SDS011;37186;51.394;5.454;2022-07-29T12:56:15;298.70;;;283.67;;
26820;SDS011;37186;51.394;5.454;2022-07-29T12:59:19;303.40;;;288.23;;
26820;SDS011;37186;51.394;5.454;2022-07-29T13:02:21;292.50;;;277.70;;
26820;SDS011;37186;51.394;5.454;2022-07-29T13:05:22;272.60;;;259.30;;
26820;SDS011;37186;51.394;5.454;2022-07-29T13:08:23;280.25;;;266.30;;
26820;SDS011;37186;51.394;5.454;2022-07-29T13:11:28;280.83;;;266.90;;
26820;SDS011;37186;51.394;5.454;2022-07-29T13:17:43;288.83;;;274.13;;
26820;SDS011;37186;51.394;5.454;2022-07-29T13:20:44;280.52;;;266.48;;
26820;SDS011;37186;51.394;5.454;2022-07-29T13:23:45;303.77;;;288.73;;
26820;SDS011;37186;51.394;5.454;2022-07-29T13:26:45;300.77;;;285.85;;
26820;SDS011;37186;51.394;5.454;2022-07-29T13:29:46;297.02;;;281.98;;
26820;SDS011;37186;51.394;5.454;2022-07-29T13:32:47;289.15;;;274.60;;
26820;SDS011;37186;51.394;5.454;2022-07-29T13:35:47;295.00;;;279.88;;
26820;SDS011;37186;51.394;5.454;2022-07-29T13:38:48;299.23;;;284.17;;
26820;SDS011;37186;51.394;5.454;2022-07-29T13:41:48;313.40;;;297.58;;
26820;SDS011;37186;51.394;5.454;2022-07-29T13:44:49;303.15;;;288.02;;
26820;SDS011;37186;51.394;5.454;2022-07-29T13:47:51;300.30;;;284.55;;
26820;SDS011;37186;51.394;5.454;2022-07-29T13:50:51;320.08;;;303.80;;
26820;SDS011;37186;51.394;5.454;2022-07-29T13:53:52;331.40;;;314.77;;
26820;SDS011;37186;51.394;5.454;2022-07-29T13:56:52;319.35;;;303.70;;
26820;SDS011;37186;51.394;5.454;2022-07-29T13:59:53;324.88;;;308.70;;
26820;SDS011;37186;51.394;5.454;2022-07-29T14:02:54;338.65;;;321.65;;
26820;SDS011;37186;51.394;5.454;2022-07-29T14:05:54;342.83;;;325.75;;
26820;SDS011;37186;51.394;5.454;2022-07-29T14:08:56;370.52;;;352.15;;
26820;SDS011;37186;51.394;5.454;2022-07-29T14:11:56;364.98;;;346.88;;
26820;SDS011;37186;51.394;5.454;2022-07-29T14:14:57;377.27;;;358.63;;
26820;SDS011;37186;51.394;5.454;2022-07-29T14:17:57;383.77;;;364.60;;
26820;SDS011;37186;51.394;5.454;2022-07-29T14:20:58;372.38;;;353.90;;
26820;SDS011;37186;51.394;5.454;2022-07-29T14:23:58;383.63;;;364.35;;
26820;SDS011;37186;51.394;5.454;2022-07-29T14:26:59;382.98;;;364.05;;
26820;SDS011;37186;51.394;5.454;2022-07-29T14:29:59;394.88;;;375.02;;
26820;SDS011;37186;51.394;5.454;2022-07-29T14:33:00;389.70;;;370.13;;
26820;SDS011;37186;51.394;5.454;2022-07-29T14:36:01;392.40;;;372.77;;
26820;SDS011;37186;51.394;5.454;2022-07-29T14:39:02;363.38;;;345.92;;
26820;SDS011;37186;51.394;5.454;2022-07-29T14:42:03;289.70;;;276.08;;
26820;SDS011;37186;51.394;5.454;2022-07-29T14:45:04;340.38;;;324.10;;
26820;SDS011;37186;51.394;5.454;2022-07-29T14:48:05;315.23;;;300.42;;
26820;SDS011;37186;51.394;5.454;2022-07-29T14:51:06;307.45;;;293.08;;
26820;SDS011;37186;51.394;5.454;2022-07-29T14:54:06;302.92;;;288.48;;
26820;SDS011;37186;51.394;5.454;2022-07-29T14:57:07;301.73;;;287.42;;
26820;SDS011;37186;51.394;5.454;2022-07-29T15:00:10;312.73;;;297.73;;
26820;SDS011;37186;51.394;5.454;2022-07-29T15:03:11;325.58;;;310.10;;
26820;SDS011;37186;51.394;5.454;2022-07-29T15:06:12;344.08;;;327.45;;
26820;SDS011;37186;51.394;5.454;2022-07-29T15:09:13;316.55;;;301.50;;
26820;SDS011;37186;51.394;5.454;2022-07-29T15:12:13;302.05;;;287.77;;
26820;SDS011;37186;51.394;5.454;2022-07-29T15:15:14;298.77;;;284.65;;
26820;SDS011;37186;51.394;5.454;2022-07-29T15:18:14;293.75;;;279.98;;
26820;SDS011;37186;51.394;5.454;2022-07-29T15:21:15;290.77;;;277.23;;
26820;SDS011;37186;51.394;5.454;2022-07-29T15:24:16;298.48;;;284.52;;
26820;SDS011;37186;51.394;5.454;2022-07-29T15:27:17;293.92;;;280.02;;
26820;SDS011;37186;51.394;5.454;2022-07-29T15:30:17;269.83;;;256.60;;
26820;SDS011;37186;51.394;5.454;2022-07-29T15:33:18;264.17;;;251.30;;
26820;SDS011;37186;51.394;5.454;2022-07-29T15:36:18;275.85;;;262.27;;
26820;SDS011;37186;51.394;5.454;2022-07-29T15:39:19;274.55;;;261.05;;
26820;SDS011;37186;51.394;5.454;2022-07-29T15:42:20;264.58;;;251.50;;
26820;SDS011;37186;51.394;5.454;2022-07-29T15:45:21;265.55;;;252.25;;
26820;SDS011;37186;51.394;5.454;2022-07-29T15:48:21;283.45;;;269.50;;
26820;SDS011;37186;51.394;5.454;2022-07-29T15:51:22;262.52;;;249.80;;
26820;SDS011;37186;51.394;5.454;2022-07-29T15:54:22;272.23;;;259.33;;
26820;SDS011;37186;51.394;5.454;2022-07-29T15:57:23;267.35;;;254.52;;
26820;SDS011;37186;51.394;5.454;2022-07-29T16:00:24;255.68;;;243.52;;
26820;SDS011;37186;51.394;5.454;2022-07-29T16:03:24;269.23;;;256.38;;
26820;SDS011;37186;51.394;5.454;2022-07-29T16:06:25;261.98;;;249.48;;
26820;SDS011;37186;51.394;5.454;2022-07-29T16:09:26;254.88;;;242.85;;
26820;SDS011;37186;51.394;5.454;2022-07-29T16:12:27;250.63;;;238.77;;
26820;SDS011;37186;51.394;5.454;2022-07-29T16:15:28;250.77;;;238.90;;
26820;SDS011;37186;51.394;5.454;2022-07-29T16:18:29;249.88;;;238.27;;
26820;SDS011;37186;51.394;5.454;2022-07-29T16:21:29;263.70;;;251.43;;
26820;SDS011;37186;51.394;5.454;2022-07-29T16:24:30;230.80;;;220.18;;
26820;SDS011;37186;51.394;5.454;2022-07-29T16:27:31;243.70;;;232.48;;
26820;SDS011;37186;51.394;5.454;2022-07-29T16:30:32;230.20;;;219.48;;
26820;SDS011;37186;51.394;5.454;2022-07-29T16:33:34;233.35;;;222.57;;
26820;SDS011;37186;51.394;5.454;2022-07-29T16:36:35;239.70;;;228.57;;
26820;SDS011;37186;51.394;5.454;2022-07-29T16:39:36;230.00;;;219.43;;
26820;SDS011;37186;51.394;5.454;2022-07-29T16:42:36;244.98;;;233.52;;
26820;SDS011;37186;51.394;5.454;2022-07-29T16:45:37;253.18;;;241.18;;
26820;SDS011;37186;51.394;5.454;2022-07-29T16:48:38;234.98;;;224.15;;
26820;SDS011;37186;51.394;5.454;2022-07-29T16:51:38;249.10;;;237.38;;
26820;SDS011;37186;51.394;5.454;2022-07-29T16:54:39;236.65;;;225.52;;
26820;SDS011;37186;51.394;5.454;2022-07-29T16:57:40;234.27;;;223.43;;
26820;SDS011;37186;51.394;5.454;2022-07-29T17:00:41;253.77;;;242.02;;
26820;SDS011;37186;51.394;5.454;2022-07-29T17:03:42;264.38;;;252.45;;
26820;SDS011;37186;51.394;5.454;2022-07-29T17:07:01;291.98;;;278.73;;
26820;SDS011;37186;51.394;5.454;2022-07-29T17:10:02;265.95;;;253.23;;
26820;SDS011;37186;51.394;5.454;2022-07-29T17:13:04;282.75;;;269.08;;
26820;SDS011;37186;51.394;5.454;2022-07-29T17:16:04;292.17;;;278.00;;
26820;SDS011;37186;51.394;5.454;2022-07-29T17:19:05;241.00;;;229.38;;
26820;SDS011;37186;51.394;5.454;2022-07-29T17:22:05;231.60;;;220.02;;
26820;SDS011;37186;51.394;5.454;2022-07-29T17:25:06;231.10;;;219.95;;
26820;SDS011;37186;51.394;5.454;2022-07-29T17:28:07;240.15;;;229.50;;
26820;SDS011;37186;51.394;5.454;2022-07-29T17:31:07;216.85;;;207.38;;
26820;SDS011;37186;51.394;5.454;2022-07-29T17:34:08;214.18;;;204.98;;
26820;SDS011;37186;51.394;5.454;2022-07-29T17:37:09;212.95;;;203.57;;
26820;SDS011;37186;51.394;5.454;2022-07-29T17:40:10;232.88;;;222.57;;
26820;SDS011;37186;51.394;5.454;2022-07-29T17:43:11;213.82;;;204.70;;
26820;SDS011;37186;51.394;5.454;2022-07-29T17:46:12;210.85;;;201.73;;
26820;SDS011;37186;51.394;5.454;2022-07-29T17:49:12;260.15;;;248.52;;
26820;SDS011;37186;51.394;5.454;2022-07-29T17:52:13;263.83;;;252.02;;
26820;SDS011;37186;51.394;5.454;2022-07-29T17:55:22;258.95;;;247.50;;
26820;SDS011;37186;51.394;5.454;2022-07-29T17:58:22;282.02;;;269.20;;
26820;SDS011;37186;51.394;5.454;2022-07-29T18:01:23;279.33;;;266.55;;
26820;SDS011;37186;51.394;5.454;2022-07-29T18:04:24;288.27;;;275.02;;